Strona główna
METAR-TAF:

METAR-TAF

Lotnisko :

Ohio State University Airport

Columbus, Ohio, Stany Zjednoczone

Szerokość geograficzna: 40-04-41N, Długość geograficzna: 083-04-41W, wysokość: 275 m

Aktualna obserwacja pogody

Raport powstał 56 minut temu, godzina 07:06 UTC
Wiatr 6 kt od północny zachód
Temperatura -9°C
Wilgotność 79%
Ciśnienie 1029 hPa
Widzialność: 16.1 km
Zachmurzenie całkowite na wysokości 1400 ft

METAR: KOSU 200706Z AUTO 32006KT 10SM OVC014 M09/M12 A3039 RMK AO2 T10891122

czas: 03:02 (08:02 UTC)


TAF: brakujący

Obserwacja i prognoza pogody dla ponad 4000 lotnisk (raport METAR i TAF).

Dostępne stacje oznaczono żółtymi i czerwonymi punktami na mapie.

Najedź kursorem aby zobaczyć nazwę stacji.

Kliknij aby zobaczyć obserwacje i prognozy pogody.

Aby zmienić mapę: kliknij na zielony przycisk z czarnym krzyżykiem, aby powiększyć; na zielony przycisk z myślnikiem, aby pomniejszyć; na zielone strzałki, aby przejść do map sąsiednich.


METAR-TAF: